Time;durP1;ratioP1;P1;durP2;ratioP2;P2;SDS_P1;SDS_P2;PMS_P1;PMS_P2;Temp;Humidity;BMP_temperature;BMP_pressure;BME280_temperature;BME280_humidity;BME280_pressure;Samples;Min_cycle;Max_cycle;Signal;HPM_P1;HPM_P2
2023/05/02 00:01:53;;;;;;;8.13;2.88;;;10.40;99.90;;;;;;5065827;28;20051;-81
2023/05/02 00:04:19;;;;;;;6.47;2.88;;;10.70;99.90;;;;;;5085093;28;20274;-81
2023/05/02 00:06:47;;;;;;;12.00;2.38;;;11.00;99.90;;;;;;5066226;28;20135;-81
2023/05/02 00:09:14;;;;;;;8.43;2.33;;;10.20;99.90;;;;;;5068176;28;20093;-81
2023/05/02 00:11:40;;;;;;;10.38;2.38;;;10.20;99.90;;;;;;5050682;28;20483;-81
2023/05/02 00:14:05;;;;;;;15.48;2.25;;;10.40;99.90;;;;;;5067474;28;20173;-81
2023/05/02 00:16:31;;;;;;;10.35;2.33;;;10.80;99.90;;;;;;5067233;28;20491;-81
2023/05/02 00:18:57;;;;;;;10.43;2.40;;;10.20;99.90;;;;;;5065928;28;20048;-81
2023/05/02 00:21:22;;;;;;;7.50;2.40;;;10.60;99.90;;;;;;5068213;28;20086;-81
2023/05/02 00:23:50;;;;;;;5.50;2.38;;;10.20;99.90;;;;;;5065700;28;20491;-81
2023/05/02 00:26:15;;;;;;;10.05;3.05;;;10.60;99.90;;;;;;5084446;28;20036;-81
2023/05/02 00:28:41;;;;;;;9.35;2.38;;;10.20;99.90;;;;;;5067630;28;20044;-81
2023/05/02 00:31:07;;;;;;;8.35;2.42;;;10.70;99.90;;;;;;5087539;28;20119;-80
2023/05/02 00:33:32;;;;;;;9.88;2.40;;;10.80;99.90;;;;;;5071404;28;20059;-81
2023/05/02 00:35:58;;;;;;;8.23;2.58;;;10.10;99.90;;;;;;5070060;28;20044;-81
2023/05/02 00:38:24;;;;;;;7.53;2.17;;;10.80;99.90;;;;;;5071798;28;20079;-82
2023/05/02 00:50:40;;;;;;;10.82;2.42;;;10.10;99.90;;;;;;5067078;28;20037;-81
2023/05/02 00:53:07;;;;;;;8.77;2.97;;;10.40;99.90;;;;;;5082691;28;20190;-81
2023/05/02 00:55:34;;;;;;;8.98;2.63;;;10.10;99.90;;;;;;5050612;28;20534;-81
2023/05/02 00:58:05;;;;;;;10.77;3.15;;;10.60;99.90;;;;;;5065805;28;20415;-81
2023/05/02 01:00:45;;;;;;;9.43;2.75;;;10.10;99.90;;;;;;5083586;28;20040;-81
2023/05/02 01:03:34;;;;;;;6.28;2.95;;;10.80;99.90;;;;;;5066647;28;20093;-81
2023/05/02 01:06:40;;;;;;;8.43;2.65;;;10.10;99.90;;;;;;5065761;28;20036;-81
2023/05/02 01:09:22;;;;;;;10.20;2.55;;;10.10;99.90;;;;;;5066805;28;20052;-82
2023/05/02 01:12:04;;;;;;;10.07;4.93;;;10.10;99.90;;;;;;5066520;28;20491;-81
2023/05/02 01:14:34;;;;;;;10.80;3.58;;;10.10;99.90;;;;;;5068116;28;20429;-81
2023/05/02 01:17:04;;;;;;;8.73;2.90;;;10.10;99.90;;;;;;5070629;28;20385;-81
2023/05/02 01:19:40;;;;;;;18.65;4.07;;;10.00;99.90;;;;;;5085811;28;20044;-81
2023/05/02 01:22:09;;;;;;;15.27;3.38;;;10.00;99.90;;;;;;5087805;28;20340;-81
2023/05/02 01:24:40;;;;;;;17.05;3.72;;;10.80;99.90;;;;;;5070493;28;20044;-81
2023/05/02 01:27:32;;;;;;;17.40;3.58;;;9.90;99.90;;;;;;5069815;28;20436;-82
2023/05/02 01:30:00;;;;;;;13.23;2.15;;;9.80;99.90;;;;;;5069846;28;20529;-81
2023/05/02 01:32:27;;;;;;;15.90;3.15;;;9.70;99.90;;;;;;5069042;28;20079;-81
2023/05/02 01:34:55;;;;;;;13.38;2.85;;;9.50;99.90;;;;;;5070016;28;20048;-81
2023/05/02 01:37:22;;;;;;;10.48;2.60;;;9.40;99.90;;;;;;5086572;28;20069;-81
2023/05/02 01:39:49;;;;;;;17.00;3.53;;;9.20;99.90;;;;;;5085912;28;20048;-81
2023/05/02 01:42:16;;;;;;;14.13;2.72;;;9.10;99.90;;;;;;5070141;28;20072;-81
2023/05/02 01:44:44;;;;;;;17.95;3.28;;;9.00;99.90;;;;;;5068568;28;20048;-81
2023/05/02 01:47:10;;;;;;;18.20;3.53;;;9.20;99.90;;;;;;5087063;28;20044;-81
2023/05/02 01:49:37;;;;;;;19.75;4.80;;;8.90;99.90;;;;;;5051863;28;20201;-81
2023/05/02 01:52:06;;;;;;;27.63;4.75;;;9.60;99.90;;;;;;5052984;28;20048;-81
2023/05/02 01:54:35;;;;;;;26.27;3.58;;;8.80;99.90;;;;;;5086556;28;20361;-81
2023/05/02 01:57:04;;;;;;;18.98;3.10;;;9.70;99.90;;;;;;5085529;28;20055;-81
2023/05/02 01:59:33;;;;;;;14.55;3.15;;;8.70;99.90;;;;;;5069918;28;20123;-81
2023/05/02 02:02:01;;;;;;;17.02;2.90;;;8.90;99.90;;;;;;5084660;28;20154;-81
2023/05/02 02:04:28;;;;;;;22.23;3.33;;;8.70;99.90;;;;;;5069798;28;20499;-81
2023/05/02 02:07:02;;;;;;;21.85;3.47;;;9.70;99.90;;;;;;5069077;28;20090;-81
2023/05/02 02:09:29;;;;;;;12.70;2.65;;;7.60;99.90;;;;;;5085979;28;20051;-81
2023/05/02 02:12:06;;;;;;;18.73;3.50;;;9.20;99.90;;;;;;5069731;28;20059;-81
2023/05/02 02:14:36;;;;;;;21.48;3.60;;;8.70;99.90;;;;;;5067999;28;20088;-81
2023/05/02 02:17:07;;;;;;;25.52;3.53;;;9.70;99.90;;;;;;5069282;28;20056;-81
2023/05/02 02:19:34;;;;;;;16.85;3.20;;;9.00;99.90;;;;;;5084611;28;20054;-81
2023/05/02 02:22:02;;;;;;;22.67;4.90;;;8.60;99.90;;;;;;5052668;28;20078;-81
2023/05/02 02:24:29;;;;;;;20.52;3.40;;;8.60;99.90;;;;;;5068387;28;20051;-82
2023/05/02 02:26:54;;;;;;;22.30;4.00;;;8.60;99.90;;;;;;5085294;28;20044;-81
2023/05/02 02:29:20;;;;;;;14.90;3.80;;;8.60;99.90;;;;;;5052847;28;20505;-82
2023/05/02 02:31:46;;;;;;;26.67;4.72;;;8.90;99.90;;;;;;5067598;28;20502;-81
2023/05/02 02:34:11;;;;;;;16.40;3.28;;;9.20;99.90;;;;;;5069521;28;20055;-81
2023/05/02 02:36:56;;;;;;;20.95;3.55;;;8.70;99.90;;;;;;5067388;28;20040;-81
2023/05/02 02:39:31;;;;;;;25.58;2.95;;;9.00;99.90;;;;;;5085541;28;20039;-81
2023/05/02 02:42:25;;;;;;;25.50;3.97;;;8.30;99.90;;;;;;5085794;28;20091;-81
2023/05/02 02:45:37;;;;;;;19.20;3.35;;;8.30;99.90;;;;;;5084332;28;20044;-81
2023/05/02 02:48:28;;;;;;;20.20;2.95;;;8.20;99.90;;;;;;5055254;28;20205;-82
2023/05/02 02:51:03;;;;;;;25.92;4.60;;;8.30;99.90;;;;;;5068974;28;20558;-81
2023/05/02 02:53:43;;;;;;;19.65;2.97;;;8.20;99.90;;;;;;5083766;28;20051;-81
2023/05/02 02:56:38;;;;;;;44.30;5.35;;;8.20;99.90;;;;;;5069015;28;20491;-81
2023/05/02 02:59:08;;;;;;;15.73;3.90;;;8.20;99.90;;;;;;5085092;28;20519;-82
2023/05/02 03:01:38;;;;;;;18.65;2.42;;;8.10;99.90;;;;;;5067537;28;20483;-81
2023/05/02 03:04:06;;;;;;;19.75;3.13;;;8.30;99.90;;;;;;5068601;28;20060;-81
2023/05/02 03:06:32;;;;;;;15.63;3.38;;;9.00;99.90;;;;;;5083835;28;20051;-81
2023/05/02 03:08:57;;;;;;;14.75;3.15;;;9.50;99.90;;;;;;5068565;28;20032;-81
2023/05/02 03:11:23;;;;;;;16.20;2.75;;;8.00;99.90;;;;;;5034630;28;20036;-81
2023/05/02 03:13:49;;;;;;;6.90;1.77;;;8.00;99.90;;;;;;5067588;28;20047;-80
2023/05/02 03:16:27;;;;;;;15.75;2.15;;;7.90;99.90;;;;;;5084787;28;20066;-81
2023/05/02 03:18:52;;;;;;;19.42;2.22;;;7.90;99.90;;;;;;5083971;28;20370;-81
2023/05/02 03:21:18;;;;;;;11.52;2.65;;;7.80;99.90;;;;;;5051673;28;20044;-81
2023/05/02 03:23:44;;;;;;;12.77;1.77;;;8.50;99.90;;;;;;5033193;28;20040;-81
2023/05/02 03:26:10;;;;;;;13.98;2.10;;;8.90;99.90;;;;;;5085399;28;20127;-81
2023/05/02 03:28:36;;;;;;;8.95;1.83;;;7.80;99.90;;;;;;5084061;28;20051;-81
2023/05/02 03:31:01;;;;;;;11.35;2.08;;;7.80;99.90;;;;;;5067403;28;20047;-81
2023/05/02 03:33:27;;;;;;;23.20;3.17;;;7.80;99.90;;;;;;5085140;28;20046;-81
2023/05/02 03:35:53;;;;;;;12.88;1.90;;;8.80;99.90;;;;;;5049514;28;20514;-81
2023/05/02 03:38:21;;;;;;;13.38;1.98;;;7.80;99.90;;;;;;5068026;28;20091;-81
2023/05/02 03:40:47;;;;;;;17.63;2.30;;;8.90;99.90;;;;;;5065856;28;20086;-81
2023/05/02 03:43:12;;;;;;;7.43;2.20;;;9.10;99.90;;;;;;5067948;28;20051;-81
2023/05/02 03:45:38;;;;;;;9.00;1.90;;;8.30;99.90;;;;;;5050351;28;20047;-81
2023/05/02 03:48:04;;;;;;;9.50;1.73;;;8.60;99.90;;;;;;5067067;28;20106;-81
2023/05/02 03:50:29;;;;;;;11.20;1.80;;;7.80;99.90;;;;;;5067613;28;20138;-81
2023/05/02 03:52:56;;;;;;;17.10;2.83;;;7.80;99.90;;;;;;5066470;28;20403;-81
2023/05/02 03:55:21;;;;;;;16.50;3.33;;;7.70;99.90;;;;;;5034610;28;20132;-82
2023/05/02 03:57:47;;;;;;;16.08;1.77;;;7.70;99.90;;;;;;5066025;28;20072;-81
2023/05/02 04:00:13;;;;;;;11.98;2.58;;;8.70;99.90;;;;;;5067950;28;20040;-81
2023/05/02 04:02:38;;;;;;;8.05;1.33;;;7.70;99.90;;;;;;5050032;28;20453;-81
2023/05/02 04:05:04;;;;;;;6.90;1.42;;;8.80;99.90;;;;;;5084008;28;20345;-81
2023/05/02 04:07:30;;;;;;;10.73;1.48;;;7.60;99.90;;;;;;5050881;28;20036;-81
2023/05/02 04:09:56;;;;;;;4.60;1.40;;;8.60;99.90;;;;;;5050378;28;20044;-81
2023/05/02 04:12:21;;;;;;;8.82;1.67;;;8.10;99.90;;;;;;5067683;28;20483;-81
2023/05/02 04:14:47;;;;;;;7.55;1.30;;;8.80;99.90;;;;;;5066428;28;20117;-81
2023/05/02 04:17:14;;;;;;;9.93;1.40;;;7.60;99.90;;;;;;5067584;28;20077;-82
2023/05/02 04:19:40;;;;;;;8.32;1.45;;;8.50;99.90;;;;;;5082887;28;20047;-82
2023/05/02 04:22:06;;;;;;;8.48;1.83;;;7.60;99.90;;;;;;5050929;28;20040;-82
2023/05/02 04:24:31;;;;;;;3.28;1.00;;;7.50;99.90;;;;;;5067239;28;20044;-81
2023/05/02 04:26:57;;;;;;;5.38;0.90;;;7.50;99.90;;;;;;5066810;28;20044;-81
2023/05/02 04:29:23;;;;;;;7.47;1.13;;;7.50;99.90;;;;;;5050666;28;20047;-82
2023/05/02 04:31:50;;;;;;;9.18;1.30;;;7.50;99.90;;;;;;5066328;28;20406;-82
2023/05/02 04:34:15;;;;;;;8.10;1.27;;;9.00;99.90;;;;;;5067972;28;20044;-81
2023/05/02 04:36:43;;;;;;;5.78;1.30;;;7.50;99.90;;;;;;5065987;28;20104;-81
2023/05/02 04:39:09;;;;;;;6.72;1.50;;;7.50;99.90;;;;;;5084403;28;20576;-83
2023/05/02 04:41:35;;;;;;;8.18;1.50;;;7.50;99.90;;;;;;5083547;28;20395;-82
2023/05/02 04:44:00;;;;;;;5.10;1.27;;;7.50;99.90;;;;;;5066439;28;20142;-80
2023/05/02 04:46:26;;;;;;;7.45;1.30;;;7.80;99.90;;;;;;5084678;28;20086;-80
2023/05/02 04:48:52;;;;;;;9.48;1.35;;;8.40;99.90;;;;;;5085074;28;20566;-80
2023/05/02 04:51:18;;;;;;;17.02;2.42;;;8.50;99.90;;;;;;5071554;28;20044;-79
2023/05/02 04:53:43;;;;;;;10.52;2.05;;;7.60;99.90;;;;;;5087587;28;20089;-79
2023/05/02 04:56:10;;;;;;;5.03;1.55;;;7.60;99.90;;;;;;5087888;28;20044;-77
2023/05/02 04:58:36;;;;;;;8.77;1.65;;;7.60;99.90;;;;;;5070241;28;20475;-77
2023/05/02 05:01:01;;;;;;;13.23;2.53;;;7.90;99.90;;;;;;5086690;28;20093;-77
2023/05/02 05:03:32;;;;;;;9.57;2.05;;;7.50;99.90;;;;;;5088017;28;20087;-77
2023/05/02 05:05:57;;;;;;;11.77;1.55;;;7.50;99.90;;;;;;5069240;28;20129;-77
2023/05/02 05:08:23;;;;;;;11.57;1.58;;;7.60;99.90;;;;;;5054633;28;20583;-78
2023/05/02 05:10:50;;;;;;;9.75;2.15;;;7.60;99.90;;;;;;5087301;28;20582;-77
2023/05/02 05:13:15;;;;;;;17.98;2.20;;;7.60;99.90;;;;;;5087568;28;20063;-78
2023/05/02 05:15:41;;;;;;;8.55;3.03;;;7.60;99.90;;;;;;5069759;28;20070;-77
2023/05/02 05:18:07;;;;;;;13.48;1.98;;;7.60;99.90;;;;;;5069070;28;20059;-77
2023/05/02 05:20:32;;;;;;;12.77;2.65;;;7.60;99.90;;;;;;5086971;28;20056;-80
2023/05/02 05:22:58;;;;;;;10.82;1.98;;;8.40;99.90;;;;;;5051584;28;20047;-79
2023/05/02 05:25:27;;;;;;;14.75;2.78;;;8.40;99.90;;;;;;5087212;28;20059;-77
2023/05/02 05:27:56;;;;;;;15.75;3.33;;;7.60;99.90;;;;;;5068982;28;20133;-77
2023/05/02 05:30:22;;;;;;;9.40;2.45;;;8.10;99.90;;;;;;5087048;28;20051;-78
2023/05/02 05:32:48;;;;;;;13.80;2.03;;;7.60;99.90;;;;;;5053594;28;20049;-76
2023/05/02 05:35:13;;;;;;;13.63;2.78;;;7.50;99.90;;;;;;5086106;28;20476;-77
2023/05/02 05:37:39;;;;;;;22.25;2.80;;;7.50;99.90;;;;;;5069894;28;20052;-76
2023/05/02 05:40:08;;;;;;;6.93;1.70;;;7.50;99.90;;;;;;5085828;28;20032;-76
2023/05/02 05:42:34;;;;;;;19.58;2.72;;;7.60;99.90;;;;;;5086815;28;20086;-77
2023/05/02 05:45:00;;;;;;;12.57;2.30;;;7.60;99.90;;;;;;5068675;28;20067;-77
2023/05/02 05:47:28;;;;;;;12.68;2.35;;;7.60;99.90;;;;;;5070704;28;20763;-76
2023/05/02 05:49:55;;;;;;;14.15;2.05;;;8.50;99.90;;;;;;5069124;28;20036;-77
2023/05/02 05:52:21;;;;;;;9.00;2.20;;;7.60;99.90;;;;;;5085742;28;20048;-77
2023/05/02 05:54:47;;;;;;;9.15;2.03;;;7.60;99.90;;;;;;5086581;28;20044;-76
2023/05/02 05:57:13;;;;;;;9.52;3.40;;;7.60;99.90;;;;;;5068240;28;20063;-77
2023/05/02 05:59:38;;;;;;;16.52;2.22;;;7.60;99.90;;;;;;5087503;28;20054;-76
2023/05/02 06:02:05;;;;;;;11.98;1.52;;;7.70;99.90;;;;;;5085149;28;20359;-76
2023/05/02 06:04:31;;;;;;;9.70;1.88;;;7.70;99.90;;;;;;5087168;28;20044;-77
2023/05/02 06:06:56;;;;;;;9.05;2.05;;;8.50;99.90;;;;;;5085931;28;20455;-77
2023/05/02 06:09:22;;;;;;;8.43;2.33;;;8.20;99.90;;;;;;5068936;28;20415;-76
2023/05/02 06:11:48;;;;;;;9.50;2.08;;;7.80;99.90;;;;;;5086357;28;20044;-76
2023/05/02 06:14:13;;;;;;;17.60;3.25;;;7.90;99.90;;;;;;5067943;28;20532;-79
2023/05/02 06:16:39;;;;;;;7.32;1.85;;;7.80;99.90;;;;;;5085767;28;20052;-76
2023/05/02 06:19:05;;;;;;;13.35;2.08;;;7.80;99.90;;;;;;5067803;28;20051;-76
2023/05/02 06:21:31;;;;;;;14.43;2.47;;;8.90;99.90;;;;;;5069881;28;20105;-76
2023/05/02 06:23:56;;;;;;;12.32;2.10;;;8.70;99.90;;;;;;5085015;28;20052;-76
2023/05/02 06:26:22;;;;;;;10.25;3.42;;;8.80;99.90;;;;;;5085999;28;20048;-76
2023/05/02 06:28:48;;;;;;;11.55;2.38;;;7.80;99.90;;;;;;5052266;28;20040;-76
2023/05/02 06:31:15;;;;;;;15.98;2.38;;;7.90;99.90;;;;;;5067970;28;20071;-77
2023/05/02 06:33:41;;;;;;;11.10;2.40;;;7.90;99.90;;;;;;5069799;28;20578;-77
2023/05/02 06:36:07;;;;;;;17.42;3.20;;;8.00;99.90;;;;;;5084210;28;20130;-77
2023/05/02 06:38:32;;;;;;;10.77;2.28;;;8.20;99.90;;;;;;5052926;28;20151;-77
2023/05/02 06:40:58;;;;;;;8.68;1.75;;;8.00;99.90;;;;;;5084647;28;20051;-76
2023/05/02 06:43:24;;;;;;;14.85;2.30;;;8.40;99.90;;;;;;5085425;28;20044;-77
2023/05/02 06:45:53;;;;;;;11.63;2.47;;;8.30;99.90;;;;;;5085668;28;20086;-77
2023/05/02 06:48:20;;;;;;;12.68;2.35;;;8.00;99.90;;;;;;5084725;28;20525;-77
2023/05/02 06:50:46;;;;;;;11.15;2.50;;;8.10;99.90;;;;;;5052516;28;20087;-77
2023/05/02 06:53:12;;;;;;;14.75;2.67;;;8.20;99.90;;;;;;5066976;28;20039;-77
2023/05/02 06:55:37;;;;;;;13.68;2.13;;;9.10;99.90;;;;;;5069480;28;20043;-78
2023/05/02 06:58:03;;;;;;;12.27;2.00;;;8.40;99.90;;;;;;5083796;28;20499;-77
2023/05/02 07:00:29;;;;;;;11.20;1.85;;;8.50;99.90;;;;;;5085090;28;20036;-77
2023/05/02 07:02:55;;;;;;;9.80;1.30;;;8.50;99.90;;;;;;5068660;28;20044;-77
2023/05/02 07:05:27;;;;;;;14.32;2.78;;;8.60;99.90;;;;;;5084089;28;20197;-79
2023/05/02 07:07:53;;;;;;;16.80;2.22;;;8.60;99.90;;;;;;5085257;28;20076;-78
2023/05/02 07:10:19;;;;;;;13.27;1.85;;;8.80;99.90;;;;;;5033341;28;20380;-79
2023/05/02 07:12:45;;;;;;;11.98;2.15;;;8.70;99.90;;;;;;5068512;28;20044;-78
2023/05/02 07:15:12;;;;;;;13.15;2.08;;;8.70;99.90;;;;;;5083317;28;20450;-77
2023/05/02 07:17:39;;;;;;;12.30;2.65;;;8.80;99.90;;;;;;5051603;28;20040;-77
2023/05/02 07:20:06;;;;;;;13.18;1.50;;;8.80;99.90;;;;;;5084619;28;20083;-77
2023/05/02 07:22:31;;;;;;;12.32;1.75;;;8.80;99.90;;;;;;5084392;28;20399;-77
2023/05/02 07:24:59;;;;;;;10.60;2.20;;;8.80;99.90;;;;;;5051995;28;20127;-77
2023/05/02 07:27:25;;;;;;;10.00;1.83;;;8.90;99.90;;;;;;5082962;28;20083;-77
2023/05/02 07:29:51;;;;;;;10.88;1.80;;;8.90;99.90;;;;;;5085553;28;20106;-78
2023/05/02 07:32:16;;;;;;;9.13;1.83;;;9.00;99.90;;;;;;5066349;28;20087;-77
2023/05/02 07:34:43;;;;;;;10.60;2.30;;;9.10;99.90;;;;;;5051121;28;20052;-75
2023/05/02 07:37:08;;;;;;;10.00;1.80;;;9.20;99.90;;;;;;5067154;28;20058;-75
2023/05/02 07:39:34;;;;;;;7.35;1.70;;;9.20;99.90;;;;;;5083660;28;20395;-75
2023/05/02 07:42:00;;;;;;;7.25;1.50;;;9.40;99.90;;;;;;5086184;28;20032;-75
2023/05/02 07:44:25;;;;;;;6.03;1.20;;;9.70;99.90;;;;;;5049727;28;20132;-75
2023/05/02 07:46:52;;;;;;;4.63;1.13;;;9.70;99.90;;;;;;5085844;28;20075;-74
2023/05/02 07:49:18;;;;;;;5.72;1.63;;;9.90;99.90;;;;;;5084476;28;20368;-74
2023/05/02 07:51:44;;;;;;;8.88;1.30;;;10.00;99.90;;;;;;5086045;28;20159;-75
2023/05/02 07:54:17;;;;;;;3.83;0.77;;;10.10;99.90;;;;;;5084145;28;20096;-75
2023/05/02 07:56:43;;;;;;;7.93;1.30;;;10.10;99.90;;;;;;5083326;28;20624;-76
2023/05/02 07:59:09;;;;;;;6.70;0.80;;;10.10;99.90;;;;;;5084289;28;20079;-76
2023/05/02 08:01:35;;;;;;;7.90;1.27;;;10.10;99.90;;;;;;5084434;28;20040;-74
2023/05/02 08:04:00;;;;;;;7.03;1.00;;;10.30;99.90;;;;;;5085800;28;20043;-76
2023/05/02 08:06:27;;;;;;;2.63;1.05;;;10.50;99.90;;;;;;5082665;28;20123;-75
2023/05/02 08:08:53;;;;;;;3.67;0.63;;;10.70;99.90;;;;;;5084216;28;20268;-75
2023/05/02 08:11:21;;;;;;;3.95;0.82;;;10.60;99.90;;;;;;5083625;28;20131;-74
2023/05/02 08:13:47;;;;;;;4.63;0.60;;;10.60;99.90;;;;;;5082875;28;20363;-78
2023/05/02 08:16:12;;;;;;;4.68;0.80;;;10.70;99.90;;;;;;5067350;28;20351;-77
2023/05/02 08:18:40;;;;;;;6.47;1.35;;;10.70;99.90;;;;;;5082312;28;20189;-77
2023/05/02 08:21:05;;;;;;;4.10;0.82;;;10.60;99.90;;;;;;5035015;28;20071;-77
2023/05/02 08:23:31;;;;;;;7.25;0.80;;;10.60;99.90;;;;;;5081816;28;20495;-79
2023/05/02 08:25:57;;;;;;;6.80;1.25;;;10.90;99.90;;;;;;5084464;28;20109;-78
2023/05/02 08:28:22;;;;;;;4.88;0.90;;;11.10;99.90;;;;;;5083757;28;20484;-78
2023/05/02 08:30:48;;;;;;;3.85;0.70;;;11.20;99.90;;;;;;5066380;28;20380;-77
2023/05/02 08:33:14;;;;;;;6.07;0.90;;;11.30;99.90;;;;;;5067116;28;20132;-77
2023/05/02 08:35:39;;;;;;;7.63;1.08;;;11.30;99.90;;;;;;5065776;28;20438;-77
2023/05/02 08:38:06;;;;;;;4.20;0.90;;;11.30;99.90;;;;;;5067881;28;20063;-77
2023/05/02 08:40:36;;;;;;;7.43;1.02;;;11.30;99.90;;;;;;5065672;28;20048;-76
2023/05/02 08:43:04;;;;;;;2.13;0.45;;;11.10;99.80;;;;;;5083922;28;20044;-76
2023/05/02 08:45:40;;;;;;;10.80;1.30;;;11.00;99.80;;;;;;5083614;28;20036;-76
2023/05/02 08:48:10;;;;;;;7.32;0.80;;;11.10;99.90;;;;;;5083366;28;20040;-76
2023/05/02 08:50:42;;;;;;;7.13;0.90;;;11.40;99.90;;;;;;5084066;28;20047;-77
2023/05/02 08:53:10;;;;;;;4.88;1.10;;;11.70;98.30;;;;;;5081863;28;20047;-76
2023/05/02 08:55:38;;;;;;;5.95;0.93;;;11.70;99.00;;;;;;5084071;28;20056;-76
2023/05/02 08:58:05;;;;;;;5.63;0.80;;;11.60;98.70;;;;;;5082348;28;20036;-76
2023/05/02 09:00:32;;;;;;;6.28;1.17;;;11.60;99.00;;;;;;5083165;28;20048;-76
2023/05/02 09:03:01;;;;;;;7.53;0.93;;;11.50;98.80;;;;;;5066648;28;20056;-76
2023/05/02 09:05:27;;;;;;;1.92;0.88;;;11.50;99.10;;;;;;5065500;28;20044;-77
2023/05/02 09:07:53;;;;;;;4.25;0.95;;;11.50;99.20;;;;;;5083808;28;20127;-77
2023/05/02 09:10:20;;;;;;;8.52;1.23;;;11.50;98.90;;;;;;5082038;28;20132;-76
2023/05/02 09:12:46;;;;;;;6.60;1.30;;;11.60;98.80;;;;;;5083938;28;20206;-78
2023/05/02 09:15:16;;;;;;;4.40;0.88;;;11.70;99.10;;;;;;5048685;28;20535;-78
2023/05/02 09:17:47;;;;;;;11.55;1.17;;;11.70;99.00;;;;;;5082559;28;20108;-77
2023/05/02 09:20:15;;;;;;;4.45;1.17;;;11.70;99.40;;;;;;5083470;28;20079;-77
2023/05/02 09:22:49;;;;;;;8.48;1.27;;;11.70;99.60;;;;;;5065198;28;20036;-77
2023/05/02 09:25:15;;;;;;;11.63;0.93;;;11.40;99.90;;;;;;5066655;28;20048;-77
2023/05/02 09:27:52;;;;;;;4.43;0.93;;;11.30;99.90;;;;;;5081819;28;20051;-77
2023/05/02 09:30:23;;;;;;;7.10;0.95;;;11.20;99.90;;;;;;5083327;28;20122;-77
2023/05/02 09:32:50;;;;;;;3.97;0.88;;;11.20;99.90;;;;;;5066558;28;20055;-77
2023/05/02 09:35:22;;;;;;;1.90;0.50;;;11.10;99.90;;;;;;5084169;28;20104;-78
2023/05/02 09:37:52;;;;;;;5.90;1.60;;;11.30;99.90;;;;;;5070303;28;20051;-76
2023/05/02 09:40:18;;;;;;;2.35;0.98;;;11.40;99.90;;;;;;5085434;28;20047;-76
2023/05/02 09:42:44;;;;;;;6.53;1.30;;;11.60;99.90;;;;;;5070411;28;20131;-77
2023/05/02 09:45:19;;;;;;;7.43;1.95;;;11.80;99.90;;;;;;5069226;28;20047;-76
2023/05/02 09:47:46;;;;;;;4.32;0.88;;;12.00;99.90;;;;;;5086520;28;20075;-77
2023/05/02 09:50:30;;;;;;;7.55;0.77;;;12.30;99.90;;;;;;5087456;28;20115;-76
2023/05/02 09:53:07;;;;;;;5.47;1.50;;;12.20;99.90;;;;;;5071524;28;20047;-76
2023/05/02 09:55:33;;;;;;;4.32;0.90;;;12.00;99.60;;;;;;5086560;28;20051;-76
2023/05/02 09:58:00;;;;;;;5.30;0.88;;;11.70;99.70;;;;;;5085768;28;20040;-76
2023/05/02 10:00:39;;;;;;;7.70;0.75;;;11.50;99.60;;;;;;5086164;28;20096;-76
2023/05/02 10:03:09;;;;;;;5.05;0.90;;;11.40;99.70;;;;;;5053451;28;20133;-76
2023/05/02 10:05:38;;;;;;;5.57;1.23;;;11.40;99.90;;;;;;5086669;28;20433;-76
2023/05/02 10:08:08;;;;;;;3.20;0.57;;;11.40;99.90;;;;;;5086353;28;20059;-76
2023/05/02 10:10:37;;;;;;;3.95;0.80;;;11.50;99.70;;;;;;5068438;28;20391;-76
2023/05/02 10:13:04;;;;;;;3.65;0.70;;;11.60;99.80;;;;;;5086065;28;20497;-76
2023/05/02 10:15:35;;;;;;;2.38;0.50;;;11.90;99.70;;;;;;5068815;28;20044;-76
2023/05/02 10:18:13;;;;;;;8.10;0.82;;;12.10;99.40;;;;;;5086247;28;20092;-76
2023/05/02 10:21:01;;;;;;;2.70;0.63;;;12.20;99.10;;;;;;5086335;28;20052;-75
2023/05/02 10:23:28;;;;;;;5.38;0.95;;;12.10;99.00;;;;;;5084036;28;20056;-76
2023/05/02 10:25:56;;;;;;;5.43;1.17;;;11.90;98.90;;;;;;5069067;28;20048;-75
2023/05/02 10:28:22;;;;;;;3.22;0.77;;;11.80;99.20;;;;;;5085726;28;20513;-76
2023/05/02 10:30:49;;;;;;;4.65;0.73;;;11.70;99.40;;;;;;5068077;28;20043;-76
2023/05/02 10:33:17;;;;;;;4.03;0.80;;;11.80;99.80;;;;;;5086411;28;20040;-76
2023/05/02 10:35:47;;;;;;;6.68;0.93;;;12.20;99.80;;;;;;5084285;28;20510;-75
2023/05/02 10:38:19;;;;;;;5.88;1.20;;;12.60;99.50;;;;;;5087420;28;20042;-75
2023/05/02 10:40:55;;;;;;;10.53;0.70;;;12.90;99.10;;;;;;5085888;28;20048;-76
2023/05/02 10:43:27;;;;;;;5.43;0.57;;;13.00;98.50;;;;;;5085206;28;20048;-76
2023/05/02 10:45:53;;;;;;;13.45;1.17;;;12.90;98.90;;;;;;5085509;28;20161;-76
2023/05/02 10:48:24;;;;;;;8.50;1.00;;;12.60;99.40;;;;;;5068011;28;20418;-76
2023/05/02 10:50:52;;;;;;;3.05;0.80;;;12.30;99.90;;;;;;5085689;28;20054;-75
2023/05/02 10:53:22;;;;;;;9.30;1.10;;;11.90;99.90;;;;;;5067218;28;20078;-75
2023/05/02 10:56:16;;;;;;;6.15;1.65;;;11.70;99.90;;;;;;5052334;28;20592;-76
2023/05/02 10:58:45;;;;;;;;;;;11.60;99.90;;;;;;5085743;28;20135;-75
2023/05/02 11:01:29;;;;;;;3.97;0.70;;;11.40;99.90;;;;;;5067632;28;19920;-75
2023/05/02 11:03:58;;;;;;;5.28;0.65;;;11.40;99.90;;;;;;5068797;28;20562;-75
2023/05/02 11:06:26;;;;;;;2.53;0.63;;;11.60;99.90;;;;;;5084653;28;20106;-75
2023/05/02 11:08:52;;;;;;;5.35;0.80;;;11.90;99.90;;;;;;5084943;28;20105;-75
2023/05/02 11:11:43;;;;;;;4.18;0.70;;;12.30;99.90;;;;;;5086498;28;20064;-77
2023/05/02 11:14:10;;;;;;;4.30;0.82;;;12.60;99.90;;;;;;5067076;28;20055;-77
2023/05/02 11:17:04;;;;;;;2.97;0.60;;;12.80;99.90;;;;;;5068408;28;20052;-77
2023/05/02 11:19:41;;;;;;;;;;;12.80;99.80;;;;;;5067803;28;20051;-77
2023/05/02 11:22:19;;;;;;;8.27;0.90;;;12.70;99.70;;;;;;5083792;28;19919;-77
2023/05/02 11:24:47;;;;;;;11.38;0.90;;;13.50;99.90;;;;;;5085482;28;20048;-77
2023/05/02 11:27:28;;;;;;;3.67;0.65;;;12.60;99.90;;;;;;5083956;28;20044;-77
2023/05/02 11:29:59;;;;;;;8.52;0.98;;;12.60;99.70;;;;;;5084992;28;20059;-78
2023/05/02 11:32:44;;;;;;;10.50;0.88;;;12.60;99.70;;;;;;5084202;28;20036;-77
2023/05/02 11:35:16;;;;;;;14.70;0.82;;;12.50;98.70;;;;;;5083278;28;20044;-76
2023/05/02 11:37:42;;;;;;;2.05;0.40;;;12.40;99.30;;;;;;5085653;28;20052;-77
2023/05/02 11:40:14;;;;;;;14.35;0.82;;;12.60;99.60;;;;;;5083860;28;20039;-77
2023/05/02 11:42:40;;;;;;;4.97;0.40;;;13.00;99.30;;;;;;5085145;28;20394;-77
2023/05/02 11:45:06;;;;;;;3.45;0.75;;;13.00;98.70;;;;;;5083654;28;20290;-77
2023/05/02 11:47:32;;;;;;;9.48;0.50;;;13.00;98.60;;;;;;5066924;28;20051;-77
2023/05/02 11:50:01;;;;;;;7.68;0.43;;;13.00;98.40;;;;;;5067794;28;20043;-77
2023/05/02 11:52:27;;;;;;;5.15;0.20;;;12.90;98.30;;;;;;5033919;28;20078;-77
2023/05/02 11:54:56;;;;;;;3.88;0.20;;;12.80;97.30;;;;;;5051420;28;20521;-77
2023/05/02 11:57:22;;;;;;;1.75;0.30;;;12.80;97.40;;;;;;5082246;28;20513;-77
2023/05/02 11:59:49;;;;;;;1.30;0.20;;;13.00;97.30;;;;;;5084587;28;20470;-78
2023/05/02 12:02:15;;;;;;;2.58;0.30;;;13.40;96.90;;;;;;5066459;28;20166;-77
2023/05/02 12:04:44;;;;;;;2.80;0.25;;;13.50;96.00;;;;;;5067243;28;20134;-76
2023/05/02 12:07:10;;;;;;;3.67;0.40;;;13.50;95.50;;;;;;5084271;28;20070;-77
2023/05/02 12:09:48;;;;;;;5.90;0.40;;;13.40;95.60;;;;;;5066433;28;20040;-77
2023/05/02 12:12:18;;;;;;;3.03;0.50;;;13.50;95.20;;;;;;5069739;28;20491;-76
2023/05/02 12:14:43;;;;;;;2.10;0.40;;;13.30;94.90;;;;;;5066581;28;20472;-77
2023/05/02 12:17:10;;;;;;;2.03;0.30;;;13.30;94.70;;;;;;5083668;28;20102;-76
2023/05/02 12:19:37;;;;;;;4.22;0.20;;;13.40;94.10;;;;;;5083654;28;20048;-76
2023/05/02 12:22:04;;;;;;;3.88;0.40;;;13.50;93.60;;;;;;5083072;28;20093;-78
2023/05/02 12:24:30;;;;;;;0.93;0.25;;;13.70;93.50;;;;;;5067663;28;20094;-78
2023/05/02 12:27:09;;;;;;;1.45;0.68;;;13.90;93.20;;;;;;5066167;28;20075;-78
2023/05/02 12:29:53;;;;;;;4.45;0.30;;;14.10;92.70;;;;;;5067727;28;20066;-77
2023/05/02 12:32:30;;;;;;;3.55;0.25;;;14.30;93.20;;;;;;5083857;28;20078;-77
2023/05/02 12:34:57;;;;;;;5.10;0.40;;;14.30;92.50;;;;;;5083374;28;20074;-77
2023/05/02 12:37:27;;;;;;;2.00;0.22;;;14.30;92.20;;;;;;5083762;28;20044;-77
2023/05/02 12:39:54;;;;;;;5.05;0.45;;;14.40;91.90;;;;;;5082988;28;20040;-77
2023/05/02 12:42:22;;;;;;;1.55;0.30;;;14.50;91.90;;;;;;5067552;28;20055;-77
2023/05/02 12:44:52;;;;;;;3.50;0.60;;;14.20;91.80;;;;;;5082413;28;20123;-77
2023/05/02 12:47:20;;;;;;;1.60;0.40;;;14.10;92.10;;;;;;5067050;28;20094;-77
2023/05/02 12:49:53;;;;;;;4.35;0.45;;;14.20;92.10;;;;;;5083112;28;20048;-77
2023/05/02 12:52:20;;;;;;;3.28;0.85;;;14.00;92.80;;;;;;5082990;28;20509;-77
2023/05/02 12:54:47;;;;;;;2.50;0.52;;;13.60;93.90;;;;;;5084074;28;20452;-76
2023/05/02 12:57:23;;;;;;;9.20;0.98;;;13.30;94.90;;;;;;5081944;28;20079;-78
2023/05/02 12:59:52;;;;;;;5.10;0.95;;;13.00;95.40;;;;;;5084363;28;20377;-77
2023/05/02 13:02:19;;;;;;;5.45;0.50;;;12.70;96.00;;;;;;5066077;28;20039;-77
2023/05/02 13:04:44;;;;;;;2.10;0.50;;;12.60;96.50;;;;;;5082707;28;20460;-77
2023/05/02 13:07:10;;;;;;;2.17;0.40;;;13.20;96.90;;;;;;5066921;28;20078;-78